Aérodrome :
LOGIN :

S'inscrire | Disclaimer

   EN    FR    IT 

 










Légende :    VFR   VFR Marginal   IFR   IFR Intensif   IFR Très Intensif
Visi : 
Plafond : 
>= 8 km
>= 3000ft
5 à 8 km
1000 à 3000 ft
1500m à 5 km
500 à 1000 ft
800 à 1500m
200 à 500 ft
< 800m
< 200 ft
Symboles :   Orages  Brouillard  Fortes neiges  Fortes précipitations  Vent > 20 kt
SIGMETs :   Divers  Orages  Givrage  Turbulence  Onde Orograph.  Cendres Volcan.






- Altitude de l'aérodrome : 87 ft
- Code IATA : FSC


LFKF - Figari

DERNIER METAR :
  • 191500Z AUTO 07015KT 040V100 9999 FEW037 OVC120 12/06 Q1022 BECMG 04015G25KT

METARs EXPIRÉS :
  • 191430Z AUTO 06013KT 040V100 CAVOK 12/06 Q1022 BECMG 04015G25KT
  • 191400Z AUTO 07014G25KT 040V100 9999 FEW036 BKN110 BKN240 12/07 Q1021 NOSIG
  • 191330Z AUTO 05014KT 020V090 9999 FEW049 12/06 Q1021 BECMG 04015G25KT
  • 191300Z AUTO 05015KT 030V090 9999 FEW062 SCT120 12/06 Q1021 BECMG 04015G25KT
  • 191230Z AUTO 07012KT 040V100 9999 SCT056 BKN066 OVC120 12/06 Q1021 BECMG 04015G25KT

TAF TAF LFKF
Valide du 19 à 15h jusqu'au 20 à 15h UTC


191400Z 1915/2015 04015G25KT 9999 FEW050 SCT100
BECMG 1919/1921 04020G40KT
BECMG 2003/2004 RA
BECMG 2014/2015 04025G45KT



MET'MAP, la Météo Aéronautique d'un coup d'oeil ! - Copyright ORBIFLY Décembre 2007 - Disclaimer

ORBIFLY MET'MAP TEAM :

Programmation & Développement : Alexandra Zaïnal
Sur une idée originale de : Baudouin d'Aumeries
Assistance à la programmation : Marc-Olivier Méhu
Soutien technique & logistique : Manuel Goepfert

Contact : metmap@orbifly.com




SOURCES & CREDITS :

   NOAA